Time;durP1;ratioP1;P1;durP2;ratioP2;P2;SDS_P1;SDS_P2;PMS_P1;PMS_P2;Temp;Humidity;BMP_temperature;BMP_pressure;BME280_temperature;BME280_humidity;BME280_pressure;Samples;Min_cycle;Max_cycle;Signal;HPM_P1;HPM_P2
2022/08/09 00:01:49;;;;;;;7.25;2.75;;;;;;;18.58;60.11;101248.52;1640995;86;28286;-66
2022/08/09 00:04:20;;;;;;;8.83;3.70;;;;;;;18.55;60.25;101251.36;1640560;87;25745;-66
2022/08/09 00:06:47;;;;;;;8.30;3.50;;;;;;;18.54;60.42;101255.25;1640911;86;25657;-66
2022/08/09 00:09:16;;;;;;;6.25;3.33;;;;;;;18.52;60.40;101253.98;1640920;85;25626;-66
2022/08/09 00:11:45;;;;;;;7.37;3.35;;;;;;;18.51;60.48;101252.36;1640804;85;25887;-66
2022/08/09 00:14:12;;;;;;;8.80;3.47;;;;;;;18.49;60.72;101252.73;1641263;86;26881;-67
2022/08/09 00:16:41;;;;;;;6.42;3.05;;;;;;;18.45;60.58;101249.84;1640945;86;25874;-66
2022/08/09 00:19:08;;;;;;;5.75;3.40;;;;;;;18.44;60.73;101255.69;1635452;87;25591;-66
2022/08/09 00:21:36;;;;;;;4.12;3.22;;;;;;;18.41;60.89;101256.36;1640805;86;25669;-66
2022/08/09 00:24:04;;;;;;;6.42;3.17;;;;;;;18.39;61.03;101257.24;1641016;86;25840;-66
2022/08/09 00:26:30;;;;;;;7.33;2.98;;;;;;;18.37;61.08;101254.05;1640664;87;28062;-66
2022/08/09 00:28:58;;;;;;;5.10;3.27;;;;;;;18.37;61.22;101260.34;1640934;85;25721;-66
2022/08/09 00:31:26;;;;;;;8.65;2.77;;;;;;;18.35;61.52;101257.70;1659446;85;25672;-66
2022/08/09 00:34:12;;;;;;;3.92;2.77;;;;;;;18.33;61.68;101262.72;1655576;84;25632;-66
2022/08/09 00:36:40;;;;;;;7.03;3.20;;;;;;;18.31;61.62;101258.95;1697268;84;25595;-66
2022/08/09 00:39:08;;;;;;;5.53;3.13;;;;;;;18.28;61.72;101255.52;1685136;84;27374;-66
2022/08/09 00:41:35;;;;;;;6.83;3.40;;;;;;;18.27;61.81;101261.56;1692019;84;25808;-66
2022/08/09 00:44:04;;;;;;;5.25;2.95;;;;;;;18.23;61.88;101257.89;1692317;84;25714;-66
2022/08/09 00:46:32;;;;;;;3.92;2.85;;;;;;;18.22;61.97;101254.14;1692489;84;26375;-66
2022/08/09 00:48:59;;;;;;;7.30;3.13;;;;;;;18.20;61.91;101257.22;1689487;84;25787;-66
2022/08/09 00:51:26;;;;;;;7.60;3.17;;;;;;;18.18;62.09;101259.47;1686770;84;27115;-66
2022/08/09 00:53:55;;;;;;;5.47;2.83;;;;;;;18.17;62.17;101261.20;1685004;84;25673;-66
2022/08/09 00:56:21;;;;;;;5.05;3.02;;;;;;;18.16;62.14;101270.54;1692440;84;25481;-66
2022/08/09 00:58:49;;;;;;;8.05;2.83;;;;;;;18.12;62.50;101264.94;1692388;84;25630;-66
2022/08/09 01:01:21;;;;;;;5.45;3.20;;;;;;;18.09;62.26;101269.71;1692454;84;25600;-66
2022/08/09 01:03:56;;;;;;;5.55;2.55;;;;;;;18.05;62.52;101275.64;1682238;84;27965;-65
2022/08/09 01:06:46;;;;;;;4.62;2.65;;;;;;;18.03;62.69;101272.41;1680544;84;25916;-65
2022/08/09 01:09:45;;;;;;;5.42;2.87;;;;;;;18.00;62.62;101271.16;1623611;88;25342;-65
2022/08/09 01:12:50;;;;;;;4.80;3.05;;;;;;;17.98;62.76;101276.17;1549797;88;26346;-67
2022/08/09 01:15:21;;;;;;;5.85;3.02;;;;;;;17.95;63.03;101276.05;1620113;88;25602;-64
2022/08/09 01:18:01;;;;;;;5.92;3.42;;;;;;;17.92;63.42;101267.93;1615488;88;27369;-67
2022/08/09 01:20:51;;;;;;;5.40;2.92;;;;;;;17.90;63.55;101272.94;1623552;88;25714;-67
2022/08/09 01:23:40;;;;;;;6.62;3.17;;;;;;;17.85;63.43;101273.11;1620469;88;25332;-65
2022/08/09 01:26:50;;;;;;;4.78;3.15;;;;;;;17.81;63.59;101270.25;1616025;88;25786;-67
2022/08/09 01:29:17;;;;;;;;;;;;;;;17.79;63.73;101275.81;1617785;88;25476;-66
2022/08/09 01:31:45;;;;;;;6.42;2.80;;;;;;;17.74;63.96;101272.15;1615805;88;27375;-66
2022/08/09 01:34:16;;;;;;;5.08;3.00;;;;;;;17.69;63.86;101271.53;1614822;88;25364;-67
2022/08/09 01:36:46;;;;;;;7.90;3.00;;;;;;;17.62;63.89;101265.25;1605369;88;25377;-65
2022/08/09 01:39:14;;;;;;;;;;;;;;;17.57;63.93;101275.02;1621515;88;25710;-65
2022/08/09 01:41:43;;;;;;;8.43;2.95;;;;;;;17.53;64.36;101274.86;1615207;88;25638;-65
2022/08/09 01:44:12;;;;;;;;;;;;;;;17.48;64.29;101272.89;1669922;84;27962;-65
2022/08/09 01:46:44;;;;;;;9.25;3.12;;;;;;;17.43;64.59;101274.45;1682097;84;25392;-65
2022/08/09 01:49:17;;;;;;;4.75;2.77;;;;;;;17.39;64.42;101269.43;1670202;84;26441;-65
2022/08/09 01:51:51;;;;;;;6.37;3.10;;;;;;;17.36;64.55;101267.56;1677692;84;25848;-65
2022/08/09 01:54:22;;;;;;;3.75;2.90;;;;;;;17.33;64.84;101273.72;1677590;84;25638;-65
2022/08/09 01:56:51;;;;;;;6.85;3.00;;;;;;;17.28;65.00;101271.72;1672173;85;27367;-65
2022/08/09 01:59:21;;;;;;;3.83;2.70;;;;;;;17.21;64.83;101272.23;1695817;84;25625;-65
2022/08/09 02:01:54;;;;;;;4.72;3.10;;;;;;;17.18;65.28;101274.29;1693178;83;25200;-65
2022/08/09 02:04:24;;;;;;;5.80;3.40;;;;;;;17.14;65.03;101274.13;1672601;84;26166;-65
2022/08/09 02:07:07;;;;;;;3.65;2.45;;;;;;;17.11;65.47;101277.54;1682560;84;25186;-65
2022/08/09 02:09:42;;;;;;;4.17;2.90;;;;;;;17.08;65.73;101280.13;1671668;84;28051;-65
2022/08/09 02:12:12;;;;;;;7.17;3.70;;;;;;;17.06;65.85;101283.73;1681771;84;26246;-66
2022/08/09 02:14:40;;;;;;;;;;;;;;;17.03;66.22;101280.31;1685165;84;25918;-65
2022/08/09 02:17:11;;;;;;;9.00;3.42;;;;;;;16.96;66.44;101280.83;1682532;84;26316;-65
2022/08/09 02:19:39;;;;;;;7.08;3.27;;;;;;;16.92;66.51;101284.75;1682733;84;25483;-66
2022/08/09 02:22:27;;;;;;;4.80;3.27;;;;;;;16.90;66.55;101286.23;1681227;84;27332;-65
2022/08/09 02:24:58;;;;;;;3.80;3.12;;;;;;;16.88;66.70;101277.56;1682246;84;25487;-65
2022/08/09 02:27:29;;;;;;;5.20;3.12;;;;;;;16.87;66.89;101280.84;1682595;84;25286;-65
2022/08/09 02:29:57;;;;;;;5.15;2.90;;;;;;;16.84;67.14;101277.42;1682552;84;25720;-65
2022/08/09 02:32:27;;;;;;;6.37;2.98;;;;;;;16.83;67.47;101275.77;1687315;84;25315;-65
2022/08/09 02:34:58;;;;;;;8.03;3.40;;;;;;;16.81;67.61;101272.00;1683537;84;28005;-65
2022/08/09 02:37:29;;;;;;;4.67;2.87;;;;;;;16.80;67.68;101275.88;1694199;84;25628;-65
2022/08/09 02:40:04;;;;;;;5.50;3.08;;;;;;;16.79;67.63;101280.30;1694252;84;25421;-66
2022/08/09 02:42:36;;;;;;;6.05;3.35;;;;;;;16.79;67.60;101278.94;1694569;84;25647;-66
2022/08/09 02:45:13;;;;;;;6.25;3.12;;;;;;;16.78;67.58;101275.38;1694529;84;25213;-65
2022/08/09 02:47:43;;;;;;;6.22;3.37;;;;;;;16.79;67.79;101280.30;1694552;84;27449;-65
2022/08/09 02:50:18;;;;;;;10.28;3.30;;;;;;;16.78;67.77;101282.20;1689862;84;25755;-67
2022/08/09 02:52:50;;;;;;;6.20;3.33;;;;;;;16.78;67.83;101279.47;1694287;84;25219;-66
2022/08/09 02:55:18;;;;;;;7.17;3.10;;;;;;;16.78;67.95;101278.69;1691445;84;26326;-66
2022/08/09 02:57:48;;;;;;;10.53;3.83;;;;;;;16.77;68.01;101283.35;1694549;84;25639;-66
2022/08/09 03:00:37;;;;;;;6.92;3.47;;;;;;;16.76;68.08;101285.05;1694482;84;27384;-66
2022/08/09 03:03:05;;;;;;;6.17;3.45;;;;;;;16.74;68.08;101285.94;1603627;88;33685;-66
2022/08/09 03:05:35;;;;;;;6.20;3.70;;;;;;;16.73;67.95;101284.33;1625725;87;25699;-67
2022/08/09 03:08:04;;;;;;;6.15;3.20;;;;;;;16.71;68.17;101281.13;1628071;87;25832;-66
2022/08/09 03:10:33;;;;;;;6.03;3.85;;;;;;;16.71;68.18;101293.41;1604771;88;25766;-66
2022/08/09 03:13:02;;;;;;;4.40;3.70;;;;;;;16.70;68.37;101291.80;1627954;88;27348;-66
2022/08/09 03:15:29;;;;;;;4.80;3.67;;;;;;;16.69;68.20;101291.58;1623878;88;25611;-66
2022/08/09 03:17:57;;;;;;;6.78;3.10;;;;;;;16.68;68.43;101294.86;1629589;88;25403;-66
2022/08/09 03:20:28;;;;;;;6.75;3.50;;;;;;;16.67;68.40;101294.64;1629643;88;25681;-66
2022/08/09 03:22:57;;;;;;;6.95;3.55;;;;;;;16.67;68.58;101297.37;1626738;87;25667;-66
2022/08/09 03:25:26;;;;;;;6.72;3.17;;;;;;;16.66;68.56;101291.66;1623445;88;27533;-65
2022/08/09 03:27:54;;;;;;;6.45;3.80;;;;;;;16.67;68.54;101295.17;1629733;88;25729;-66
2022/08/09 03:30:22;;;;;;;5.20;3.37;;;;;;;16.67;68.51;101293.27;1629539;87;25510;-65
2022/08/09 03:32:51;;;;;;;5.28;3.27;;;;;;;16.68;68.58;101295.43;1629821;88;25628;-65
2022/08/09 03:35:20;;;;;;;8.68;3.80;;;;;;;16.68;68.89;101294.86;1629759;88;25538;-66
2022/08/09 03:37:49;;;;;;;12.15;3.80;;;;;;;16.71;69.04;101286.59;1625455;87;27925;-65
2022/08/09 03:40:15;;;;;;;5.25;3.60;;;;;;;16.72;69.19;101289.54;1626648;85;25382;-65
2022/08/09 03:42:45;;;;;;;5.95;3.42;;;;;;;16.75;69.27;101289.72;1672804;85;25474;-65
2022/08/09 03:45:11;;;;;;;13.75;4.20;;;;;;;16.77;69.53;101291.55;1655453;85;25613;-65
2022/08/09 03:47:41;;;;;;;6.22;3.50;;;;;;;16.80;69.38;101292.27;1655412;86;25636;-65
2022/08/09 03:50:08;;;;;;;;;;;;;;;16.81;69.25;101291.13;1657855;86;27990;-66
2022/08/09 03:52:41;;;;;;;7.30;3.77;;;;;;;16.84;69.46;101293.81;1655284;86;25731;-65
2022/08/09 03:55:11;;;;;;;16.70;4.50;;;;;;;16.87;69.48;101293.70;1655381;86;25657;-65
2022/08/09 03:57:38;;;;;;;7.22;4.00;;;;;;;16.88;69.50;101304.89;1655369;86;25666;-65
2022/08/09 04:00:07;;;;;;;5.17;3.58;;;;;;;16.91;69.49;101302.88;1655359;86;25780;-66
2022/08/09 04:02:35;;;;;;;8.10;3.40;;;;;;;16.94;69.46;101303.55;1673316;85;27319;-65
2022/08/09 04:05:04;;;;;;;7.92;3.87;;;;;;;16.96;69.43;101306.79;1675081;85;25835;-65
2022/08/09 04:07:32;;;;;;;5.58;3.65;;;;;;;16.99;69.49;101313.77;1675690;85;25425;-65
2022/08/09 04:10:03;;;;;;;5.60;3.65;;;;;;;17.03;69.56;101316.64;1679492;85;26377;-65
2022/08/09 04:12:50;;;;;;;6.50;3.47;;;;;;;17.07;69.41;101320.88;1679446;85;25425;-67
2022/08/09 04:15:21;;;;;;;7.15;3.83;;;;;;;17.09;69.38;101316.67;1679454;85;27338;-67
2022/08/09 04:17:48;;;;;;;6.40;3.77;;;;;;;17.13;69.60;101316.84;1679371;85;25594;-65
2022/08/09 04:20:16;;;;;;;6.60;3.70;;;;;;;17.17;69.60;101318.58;1679461;85;25578;-67
2022/08/09 04:22:46;;;;;;;5.12;3.17;;;;;;;17.24;69.59;101314.53;1679440;85;25751;-67
2022/08/09 04:25:13;;;;;;;7.97;3.55;;;;;;;17.29;69.53;101319.81;1679542;85;25757;-67
2022/08/09 04:27:42;;;;;;;6.70;4.03;;;;;;;17.35;69.55;101322.04;1679404;85;27747;-67
2022/08/09 04:30:14;;;;;;;;;;;;;;;17.40;69.64;101316.13;1681899;85;25613;-65
2022/08/09 04:32:42;;;;;;;8.40;3.67;;;;;;;17.46;69.84;101319.72;1665486;85;25382;-65
2022/08/09 04:35:11;;;;;;;7.45;3.52;;;;;;;17.52;69.64;101320.31;1679414;85;25704;-65
2022/08/09 04:37:39;;;;;;;5.47;4.00;;;;;;;17.58;69.52;101312.74;1678538;85;25491;-65
2022/08/09 04:40:08;;;;;;;10.25;4.45;;;;;;;17.63;69.39;101316.65;1673294;85;27968;-66
2022/08/09 04:42:35;;;;;;;5.20;4.28;;;;;;;17.68;69.29;101315.09;1679499;85;26186;-66
2022/08/09 04:45:04;;;;;;;5.42;3.35;;;;;;;17.72;69.31;101316.84;1679415;84;25318;-65
2022/08/09 04:47:31;;;;;;;6.92;3.58;;;;;;;17.79;69.23;101320.38;1679529;85;25678;-65
2022/08/09 04:50:02;;;;;;;7.42;4.10;;;;;;;17.84;69.22;101322.13;1679500;84;25447;-65
2022/08/09 04:52:30;;;;;;;6.33;3.75;;;;;;;17.89;68.99;101320.05;1679409;85;27322;-65
2022/08/09 04:55:00;;;;;;;3.87;3.50;;;;;;;17.94;68.88;101325.86;1679457;85;25752;-66
2022/08/09 04:57:27;;;;;;;6.35;3.87;;;;;;;17.96;68.66;101324.16;1679423;85;25568;-65
2022/08/09 04:59:57;;;;;;;4.55;3.77;;;;;;;18.00;68.62;101329.22;1679427;85;25704;-66
2022/08/09 05:02:26;;;;;;;;;;;;;;;18.05;68.62;101330.39;1668996;85;25486;-66
2022/08/09 05:04:55;;;;;;;5.78;3.58;;;;;;;18.12;68.73;101326.54;1655556;85;26785;-66
2022/08/09 05:07:24;;;;;;;11.12;4.05;;;;;;;18.15;68.43;101327.24;1655345;86;25312;-66
2022/08/09 05:09:54;;;;;;;6.90;4.17;;;;;;;18.19;68.33;101326.80;1655616;86;25647;-66
2022/08/09 05:12:22;;;;;;;7.58;3.80;;;;;;;18.22;68.09;101331.60;1651935;86;25743;-65
2022/08/09 05:14:48;;;;;;;9.15;4.60;;;;;;;18.25;68.07;101332.31;1655399;86;25695;-67
2022/08/09 05:17:19;;;;;;;9.65;3.70;;;;;;;18.32;68.14;101343.27;1655441;86;26946;-66
2022/08/09 05:19:47;;;;;;;6.00;3.52;;;;;;;18.37;68.00;101337.58;1655384;86;25598;-66
2022/08/09 05:22:14;;;;;;;5.22;3.47;;;;;;;18.41;67.91;101345.37;1655217;85;25651;-66
2022/08/09 05:24:40;;;;;;;8.73;3.52;;;;;;;18.45;67.88;101346.30;1655386;86;25756;-67
2022/08/09 05:27:13;;;;;;;7.75;3.77;;;;;;;18.52;67.80;101350.65;1655424;86;25802;-66
2022/08/09 05:29:40;;;;;;;8.85;3.98;;;;;;;18.56;67.51;101349.41;1655443;85;27416;-66
2022/08/09 05:32:07;;;;;;;8.05;3.75;;;;;;;18.59;67.31;101349.55;1655335;86;25471;-66
2022/08/09 05:34:36;;;;;;;8.40;3.80;;;;;;;18.61;67.14;101350.02;1655487;86;25663;-66
2022/08/09 05:37:08;;;;;;;11.63;4.13;;;;;;;18.66;67.11;101352.54;1655673;86;25758;-66
2022/08/09 05:39:37;;;;;;;5.37;3.60;;;;;;;18.72;66.99;101351.74;1655482;85;25658;-66
2022/08/09 05:42:04;;;;;;;4.92;3.47;;;;;;;18.76;66.70;101347.75;1655542;86;27393;-65
2022/08/09 05:44:32;;;;;;;8.68;3.75;;;;;;;18.81;66.74;101351.09;1655296;86;25337;-65
2022/08/09 05:47:00;;;;;;;5.62;3.45;;;;;;;18.88;66.87;101344.27;1655468;86;25328;-66
2022/08/09 05:49:29;;;;;;;4.22;3.55;;;;;;;18.95;66.61;101348.06;1655380;86;25741;-65
2022/08/09 05:51:56;;;;;;;5.85;3.65;;;;;;;19.02;66.51;101349.67;1655627;86;25697;-65
2022/08/09 05:54:22;;;;;;;4.97;3.35;;;;;;;19.10;66.41;101349.90;1655485;86;27388;-64
2022/08/09 05:56:49;;;;;;;6.67;3.80;;;;;;;19.19;66.35;101353.35;1655331;85;25499;-65
2022/08/09 05:59:15;;;;;;;7.40;3.87;;;;;;;19.29;66.35;101352.08;1655404;85;25416;-65
2022/08/09 06:01:42;;;;;;;10.40;5.50;;;;;;;19.37;66.12;101353.91;1655330;86;25995;-65
2022/08/09 06:04:09;;;;;;;5.90;4.35;;;;;;;19.47;66.05;101352.66;1652882;86;25511;-63
2022/08/09 06:06:36;;;;;;;5.47;3.90;;;;;;;19.58;65.96;101346.91;1655407;85;28045;-63
2022/08/09 06:09:03;;;;;;;8.43;5.33;;;;;;;19.67;65.46;101353.68;1655096;86;25678;-64
2022/08/09 06:11:32;;;;;;;7.25;3.55;;;;;;;19.73;65.35;101355.84;1655404;86;25594;-64
2022/08/09 06:13:59;;;;;;;;;;;;;;;19.79;65.35;101356.43;1657580;85;26387;-63
2022/08/09 06:16:26;;;;;;;4.33;3.33;;;;;;;19.85;65.27;101352.86;1651644;86;25333;-63
2022/08/09 06:18:53;;;;;;;6.67;3.98;;;;;;;19.89;64.95;101350.45;1580742;88;29517;-63
2022/08/09 06:21:20;;;;;;;3.92;3.40;;;;;;;19.97;64.86;101355.57;1628641;87;25686;-63
2022/08/09 06:23:51;;;;;;;6.42;3.50;;;;;;;20.01;64.78;101352.37;1654980;85;25910;-63
2022/08/09 06:26:21;;;;;;;7.30;3.75;;;;;;;20.04;64.59;101354.98;1652635;86;25698;-63
2022/08/09 06:28:53;;;;;;;;;;;;;;;;;;;;;
2022/08/09 06:31:19;;;;;;;9.30;3.47;;;;;;;20.15;64.52;101354.15;1655154;86;26715;-64
2022/08/09 06:33:45;;;;;;;4.85;3.35;;;;;;;20.22;64.42;101359.05;1655202;85;25704;-62
2022/08/09 06:36:12;;;;;;;6.20;3.10;;;;;;;20.28;64.08;101365.91;1655258;86;25396;-63
2022/08/09 06:38:39;;;;;;;5.03;3.37;;;;;;;20.30;64.14;101364.19;1651578;86;25908;-62
2022/08/09 06:41:06;;;;;;;5.65;4.15;;;;;;;20.38;64.24;101365.17;1654860;86;25350;-62
2022/08/09 06:43:33;;;;;;;10.30;3.87;;;;;;;20.46;63.97;101367.77;1655384;86;27095;-63
2022/08/09 06:46:05;;;;;;;8.50;3.40;;;;;;;20.55;64.00;101359.95;1655201;86;25767;-63
2022/08/09 06:48:31;;;;;;;5.10;3.58;;;;;;;20.65;63.76;101361.66;1650004;86;25350;-62
2022/08/09 06:50:59;;;;;;;8.78;3.50;;;;;;;20.72;63.65;101365.14;1654827;86;25701;-67
2022/08/09 06:53:28;;;;;;;7.42;3.52;;;;;;;20.80;63.47;101364.77;1655041;86;25339;-67
2022/08/09 06:55:54;;;;;;;5.10;3.87;;;;;;;20.87;63.20;101364.39;1603156;88;27402;-67
2022/08/09 06:58:22;;;;;;;7.78;3.80;;;;;;;20.97;62.99;101367.17;1654506;86;25698;-66
2022/08/09 07:00:48;;;;;;;6.53;3.12;;;;;;;21.03;62.60;101369.11;1655052;86;25917;-67
2022/08/09 07:03:15;;;;;;;6.35;3.35;;;;;;;21.08;62.31;101368.26;1665358;85;25924;-68
2022/08/09 07:05:41;;;;;;;5.67;2.85;;;;;;;21.15;62.22;101369.59;1677958;85;25576;-68
2022/08/09 07:08:08;;;;;;;6.25;2.90;;;;;;;21.19;62.34;101368.52;1678656;84;27368;-68
2022/08/09 07:10:36;;;;;;;3.92;3.20;;;;;;;21.32;62.23;101368.41;1673852;85;25820;-68
2022/08/09 07:13:03;;;;;;;6.70;3.85;;;;;;;21.41;62.33;101373.95;1679438;85;25810;-69
2022/08/09 07:15:30;;;;;;;6.20;3.10;;;;;;;21.56;62.21;101370.21;1678859;85;25780;-67
2022/08/09 07:17:58;;;;;;;4.72;3.15;;;;;;;21.71;62.13;101374.88;1678410;85;25433;-66
2022/08/09 07:20:25;;;;;;;3.95;3.30;;;;;;;21.87;62.15;101366.57;1678224;85;26891;-67
2022/08/09 07:22:53;;;;;;;6.28;3.50;;;;;;;22.08;61.62;101367.59;1678513;85;25743;-67
2022/08/09 07:25:19;;;;;;;4.05;3.17;;;;;;;22.26;61.18;101369.94;1675208;85;25711;-67
2022/08/09 07:27:48;;;;;;;3.30;3.00;;;;;;;22.45;61.06;101370.54;1674843;85;25813;-67
2022/08/09 07:30:14;;;;;;;6.70;3.47;;;;;;;22.67;60.20;101369.78;1679365;85;25431;-67
2022/08/09 07:32:42;;;;;;;7.33;3.55;;;;;;;22.85;59.47;101374.81;1674357;85;27535;-67
2022/08/09 07:35:11;;;;;;;8.45;2.95;;;;;;;23.04;59.09;101373.98;1677666;85;25342;-67
2022/08/09 07:37:40;;;;;;;;;;;;;;;23.17;58.53;101385.64;1680546;85;25360;-67
2022/08/09 07:40:08;;;;;;;4.85;3.15;;;;;;;23.37;58.29;101382.23;1674754;85;25885;-68
2022/08/09 07:42:54;;;;;;;6.17;3.67;;;;;;;23.53;57.25;101372.41;1679548;85;25719;-67
2022/08/09 07:45:24;;;;;;;4.00;2.83;;;;;;;23.69;56.64;101379.95;1678521;85;28124;-67
2022/08/09 07:47:56;;;;;;;5.22;2.92;;;;;;;23.88;56.20;101385.17;1678910;85;25749;-68
2022/08/09 07:50:26;;;;;;;2.55;2.35;;;;;;;23.98;55.38;101382.55;1670432;85;25679;-68
2022/08/09 07:52:55;;;;;;;4.40;2.90;;;;;;;24.10;55.20;101384.28;1670112;85;26123;-69
2022/08/09 07:55:25;;;;;;;;;;;;;;;24.19;55.01;101386.16;1672244;85;26434;-68
2022/08/09 07:57:51;;;;;;;3.58;2.50;;;;;;;24.29;54.07;101385.30;1661871;85;27413;-68
2022/08/09 08:00:20;;;;;;;2.90;2.60;;;;;;;24.27;54.01;101380.73;1656313;85;25808;-66
2022/08/09 08:02:46;;;;;;;6.78;2.50;;;;;;;24.29;53.49;101383.91;1673721;85;25704;-67
2022/08/09 08:05:13;;;;;;;6.62;2.85;;;;;;;24.33;53.47;101384.74;1655081;85;25863;-67
2022/08/09 08:07:40;;;;;;;5.30;2.70;;;;;;;24.35;53.18;101382.42;1655287;86;25724;-67
2022/08/09 08:10:08;;;;;;;5.40;3.27;;;;;;;24.40;52.65;101384.25;1649710;86;29544;-67
2022/08/09 08:12:36;;;;;;;8.65;2.77;;;;;;;24.36;52.29;101391.69;1646474;86;25784;-67
2022/08/09 08:15:04;;;;;;;4.75;2.60;;;;;;;24.40;52.43;101386.23;1646969;85;25714;-68
2022/08/09 08:17:32;;;;;;;9.33;3.25;;;;;;;24.46;52.50;101387.47;1646702;86;25658;-67
2022/08/09 08:20:00;;;;;;;6.67;2.72;;;;;;;24.53;52.16;101385.38;1646624;86;25709;-67
2022/08/09 08:22:27;;;;;;;3.72;2.67;;;;;;;24.58;51.74;101392.77;1651240;85;33091;-67
2022/08/09 08:24:57;;;;;;;7.25;3.22;;;;;;;24.62;51.56;101388.67;1650653;86;25853;-67
2022/08/09 08:27:26;;;;;;;3.47;2.90;;;;;;;24.71;51.11;101393.30;1650615;86;25578;-67
2022/08/09 08:29:53;;;;;;;;;;;;;;;24.76;51.12;101391.58;1656039;86;25673;-67
2022/08/09 08:32:21;;;;;;;6.67;3.55;;;;;;;24.93;51.26;101394.91;1654632;85;25405;-68
2022/08/09 08:34:48;;;;;;;4.70;2.97;;;;;;;25.12;51.57;101390.52;1653786;86;27563;-67
2022/08/09 08:37:15;;;;;;;5.53;2.85;;;;;;;25.29;50.52;101389.11;1654644;85;25736;-67
2022/08/09 08:39:42;;;;;;;6.55;3.20;;;;;;;25.41;50.26;101395.53;1648981;85;25759;-67
2022/08/09 08:42:09;;;;;;;6.08;2.70;;;;;;;25.54;50.27;101396.82;1646110;86;25826;-67
2022/08/09 08:44:36;;;;;;;5.45;2.75;;;;;;;25.81;50.14;101387.69;1649663;86;25674;-67
2022/08/09 08:47:04;;;;;;;5.25;2.70;;;;;;;26.05;49.43;101390.41;1654496;86;27297;-67
2022/08/09 08:49:32;;;;;;;5.50;3.00;;;;;;;26.30;48.96;101388.31;1647580;86;25807;-68
2022/08/09 08:52:03;;;;;;;6.67;2.80;;;;;;;26.47;48.30;101395.10;1646124;86;25586;-67
2022/08/09 08:54:31;;;;;;;5.22;2.70;;;;;;;26.66;47.76;101389.83;1654789;85;25618;-67
2022/08/09 08:56:58;;;;;;;9.70;2.55;;;;;;;26.88;47.16;101386.48;1647055;86;25760;-63
2022/08/09 08:59:28;;;;;;;6.62;2.45;;;;;;;26.96;46.35;101392.25;1654845;85;29506;-62
2022/08/09 09:01:56;;;;;;;6.10;2.77;;;;;;;27.06;46.30;101385.13;1654542;85;25668;-62
2022/08/09 09:04:28;;;;;;;5.62;2.25;;;;;;;27.23;45.91;101387.70;1672517;85;25687;-62
2022/08/09 09:06:59;;;;;;;6.00;2.37;;;;;;;27.39;45.33;101387.31;1666931;85;26247;-61
2022/08/09 09:09:26;;;;;;;6.25;2.37;;;;;;;27.45;45.01;101382.14;1678469;85;25754;-61
2022/08/09 09:11:55;;;;;;;4.50;2.27;;;;;;;27.61;45.00;101388.68;1678677;85;27437;-61
2022/08/09 09:14:25;;;;;;;4.83;2.67;;;;;;;27.71;44.29;101387.26;1672999;85;25827;-63
2022/08/09 09:16:54;;;;;;;8.55;2.12;;;;;;;27.80;43.64;101382.66;1678575;85;26300;-63
2022/08/09 09:19:20;;;;;;;4.37;1.82;;;;;;;27.91;43.55;101384.82;1678930;85;25731;-64
2022/08/09 09:22:09;;;;;;;5.47;1.80;;;;;;;28.00;42.80;101382.25;1678711;85;25704;-64
2022/08/09 09:24:46;;;;;;;3.08;2.15;;;;;;;28.08;42.20;101385.98;1676233;85;27332;-64
2022/08/09 09:27:16;;;;;;;8.28;2.80;;;;;;;28.21;42.17;101384.92;1678356;85;25765;-62
2022/08/09 09:29:44;;;;;;;5.28;2.40;;;;;;;28.43;41.75;101382.81;1674284;85;26197;-62
2022/08/09 09:32:11;;;;;;;3.45;1.75;;;;;;;28.62;40.97;101389.92;1674102;85;26763;-62
2022/08/09 09:34:41;;;;;;;3.83;1.92;;;;;;;28.73;40.59;101379.31;1678712;85;25567;-62
2022/08/09 09:37:07;;;;;;;2.50;1.47;;;;;;;28.96;40.25;101387.08;1678673;85;27413;-63
2022/08/09 09:39:34;;;;;;;5.78;2.00;;;;;;;29.15;40.02;101391.30;1676600;84;26124;-63
2022/08/09 09:42:04;;;;;;;3.25;2.10;;;;;;;29.27;39.39;101386.66;1678727;85;25771;-62
2022/08/09 09:44:33;;;;;;;3.80;2.42;;;;;;;29.22;38.75;101389.89;1678527;85;25666;-62
2022/08/09 09:47:13;;;;;;;3.62;1.90;;;;;;;29.27;38.81;101383.06;1668139;85;25792;-62
2022/08/09 09:49:40;;;;;;;3.27;1.82;;;;;;;29.42;38.67;101392.87;1636083;87;28642;-63
2022/08/09 09:52:10;;;;;;;4.12;1.80;;;;;;;29.36;38.06;101385.57;1609546;87;25902;-63
2022/08/09 09:54:42;;;;;;;5.25;2.20;;;;;;;29.34;37.65;101385.20;1621663;87;25923;-63
2022/08/09 09:57:23;;;;;;;3.70;2.17;;;;;;;29.33;37.71;101382.21;1626944;87;25757;-63
2022/08/09 09:59:53;;;;;;;2.72;2.08;;;;;;;29.29;37.27;101386.26;1628693;87;25819;-62
2022/08/09 10:02:20;;;;;;;5.37;2.17;;;;;;;29.17;37.03;101381.38;1616870;87;27149;-62
2022/08/09 10:05:06;;;;;;;2.53;1.93;;;;;;;29.11;37.15;101386.37;1624304;87;26296;-63
2022/08/09 10:07:33;;;;;;;2.35;1.72;;;;;;;29.11;36.71;101383.59;1621391;88;25676;-64
2022/08/09 10:10:01;;;;;;;3.55;2.40;;;;;;;29.07;36.66;101386.41;1619364;88;25798;-61
2022/08/09 10:12:37;;;;;;;3.05;1.77;;;;;;;29.09;36.54;101378.42;1614585;88;26274;-62
2022/08/09 10:15:14;;;;;;;3.40;1.90;;;;;;;29.04;36.19;101382.43;1653420;85;27646;-65
2022/08/09 10:17:47;;;;;;;2.45;1.90;;;;;;;29.05;36.16;101372.88;1655606;85;25976;-67
2022/08/09 10:20:25;;;;;;;3.45;1.92;;;;;;;29.05;36.67;101379.84;1657847;86;25754;-66
2022/08/09 10:22:54;;;;;;;3.00;2.35;;;;;;;29.12;36.67;101376.83;1619346;88;26317;-65
2022/08/09 10:25:22;;;;;;;4.97;2.22;;;;;;;29.21;36.78;101380.73;1657058;85;25759;-65
2022/08/09 10:27:50;;;;;;;2.23;1.80;;;;;;;29.20;36.60;101385.31;1658974;86;26829;-65
2022/08/09 10:30:16;;;;;;;6.05;2.80;;;;;;;29.21;36.53;101386.91;1600725;88;25417;-65
2022/08/09 10:32:44;;;;;;;4.67;2.10;;;;;;;29.19;36.58;101380.35;1653088;86;25743;-66
2022/08/09 10:35:12;;;;;;;3.35;2.22;;;;;;;29.16;36.57;101381.17;1647405;85;26497;-66
2022/08/09 10:37:40;;;;;;;3.17;2.02;;;;;;;29.07;36.05;101375.27;1654911;86;25329;-67
2022/08/09 10:40:08;;;;;;;6.00;2.02;;;;;;;28.97;36.25;101380.32;1580041;88;34165;-66
2022/08/09 10:42:35;;;;;;;2.87;1.90;;;;;;;28.90;36.51;101378.99;1637609;86;25789;-66
2022/08/09 10:45:08;;;;;;;5.95;2.27;;;;;;;28.84;36.52;101368.30;1653779;86;26356;-66
2022/08/09 10:48:10;;;;;;;3.30;2.05;;;;;;;28.79;36.18;101372.91;1654300;85;26246;-66
2022/08/09 10:51:11;;;;;;;6.65;2.85;;;;;;;28.63;36.17;101380.35;1662905;86;25302;-66
2022/08/09 10:54:06;;;;;;;4.30;2.52;;;;;;;28.54;36.47;101379.18;1611308;87;26955;-67
2022/08/09 10:56:36;;;;;;;6.37;2.52;;;;;;;28.50;36.31;101366.69;1574692;90;25824;-67
2022/08/09 10:59:27;;;;;;;6.53;2.05;;;;;;;28.42;36.37;101376.30;1549912;91;25544;-66
2022/08/09 11:01:54;;;;;;;4.40;2.10;;;;;;;28.37;36.18;101369.77;1607098;87;27793;-65
2022/08/09 11:04:29;;;;;;;12.58;9.05;;;;;;;28.35;36.46;101373.53;1610059;87;25751;-66
2022/08/09 11:07:03;;;;;;;3.58;2.40;;;;;;;28.38;36.58;101366.55;1611469;88;27911;-66
2022/08/09 11:09:47;;;;;;;2.42;2.08;;;;;;;28.39;36.40;101369.54;1607557;87;25745;-65
2022/08/09 11:12:23;;;;;;;4.55;2.10;;;;;;;28.46;36.61;101365.31;1609788;87;25706;-66
2022/08/09 11:15:19;;;;;;;2.95;2.02;;;;;;;28.57;36.15;101365.30;1580902;89;25859;-65
2022/08/09 11:17:49;;;;;;;3.05;2.55;;;;;;;28.70;36.05;101366.98;1607834;87;25329;-68
2022/08/09 11:20:18;;;;;;;5.45;3.22;;;;;;;28.91;36.06;101364.63;1606088;87;28405;-67
2022/08/09 11:22:51;;;;;;;3.10;1.95;;;;;;;29.02;35.53;101363.95;1607211;88;26086;-67
2022/08/09 11:25:23;;;;;;;3.35;2.25;;;;;;;29.20;34.97;101357.45;1612192;87;25822;-68
2022/08/09 11:27:56;;;;;;;3.12;2.08;;;;;;;29.31;35.04;101355.37;1569241;90;26320;-68
2022/08/09 11:30:31;;;;;;;3.00;2.20;;;;;;;29.43;34.67;101362.42;1565440;88;25839;-67
2022/08/09 11:33:16;;;;;;;2.20;2.00;;;;;;;29.54;34.40;101356.14;1647151;86;26596;-69
2022/08/09 11:35:54;;;;;;;3.98;2.12;;;;;;;29.61;34.18;101358.06;1620623;88;25777;-70
2022/08/09 11:38:33;;;;;;;2.17;1.98;;;;;;;29.62;34.07;101354.05;1614155;88;25677;-68
2022/08/09 11:41:17;;;;;;;4.25;2.60;;;;;;;29.59;33.70;101350.11;1622156;88;25801;-68
2022/08/09 11:43:50;;;;;;;3.75;1.95;;;;;;;29.57;33.52;101351.72;1622046;88;25785;-67
2022/08/09 11:46:17;;;;;;;5.03;2.35;;;;;;;29.50;33.77;101346.23;1616940;88;27915;-68